createdAt,value
2022-12-19T00:01:23.568Z,79.70
2022-12-19T00:03:55.454Z,79.70
2022-12-19T00:06:24.230Z,79.00
2022-12-19T00:08:54.807Z,79.60
2022-12-19T00:11:24.970Z,80.30
2022-12-19T00:13:53.173Z,81.80
2022-12-19T00:16:23.483Z,76.30
2022-12-19T00:18:55.186Z,78.20
2022-12-19T00:21:25.342Z,77.30
2022-12-19T00:23:54.845Z,77.20
2022-12-19T00:26:25.142Z,77.80
2022-12-19T00:28:55.421Z,79.10
2022-12-19T00:31:27.288Z,77.90
2022-12-19T00:33:55.640Z,81.50
2022-12-19T00:36:25.417Z,81.50
2022-12-19T00:38:56.232Z,81.50
2022-12-19T00:41:26.482Z,82.10
2022-12-19T00:43:58.570Z,80.90
2022-12-19T00:46:27.820Z,85.10
2022-12-19T00:48:56.616Z,84.20
2022-12-19T00:51:26.776Z,84.70
2022-12-19T00:53:57.473Z,88.80
2022-12-19T00:56:28.700Z,88.40
2022-12-19T00:58:57.281Z,85.90
2022-12-19T01:01:27.657Z,82.90
2022-12-19T01:06:44.678Z,73.80
2022-12-19T01:09:15.022Z,73.10
2022-12-19T01:12:00.771Z,73.30
2022-12-19T01:14:28.935Z,74.40
2022-12-19T01:16:56.996Z,77.10
2022-12-19T01:19:28.002Z,77.60
2022-12-19T01:21:55.999Z,77.70
2022-12-19T01:24:25.399Z,79.10
2022-12-19T01:26:53.558Z,75.90
2022-12-19T01:29:21.552Z,75.40
2022-12-19T01:31:49.685Z,74.40
2022-12-19T01:34:18.039Z,73.70
2022-12-19T01:36:46.126Z,73.50
2022-12-19T01:39:14.295Z,72.10
2022-12-19T01:41:44.116Z,70.90
2022-12-19T01:44:12.400Z,71.20
2022-12-19T01:46:44.559Z,72.30
2022-12-19T01:49:18.110Z,72.60
2022-12-19T01:51:53.684Z,73.00
2022-12-19T01:54:26.618Z,72.80
2022-12-19T01:57:01.082Z,73.80
2022-12-19T01:59:33.350Z,74.90
2022-12-19T02:02:08.484Z,71.90
2022-12-19T02:04:37.510Z,69.40
2022-12-19T02:07:16.188Z,66.90
2022-12-19T02:09:46.851Z,69.10
2022-12-19T02:12:16.668Z,69.30
2022-12-19T02:14:44.998Z,70.60
2022-12-19T02:17:20.995Z,68.00
2022-12-19T02:20:22.815Z,67.80
2022-12-19T02:23:07.976Z,70.80
2022-12-19T02:26:01.356Z,73.60
2022-12-19T02:29:07.131Z,74.10
2022-12-19T02:31:40.838Z,74.00
2022-12-19T02:34:18.299Z,76.50
2022-12-19T02:37:01.866Z,76.40
2022-12-19T02:39:37.047Z,76.00
2022-12-19T02:42:08.810Z,78.80
2022-12-19T02:44:44.101Z,80.50
2022-12-19T02:47:14.673Z,80.80
2022-12-19T02:49:44.215Z,80.50
2022-12-19T02:52:13.441Z,82.90
2022-12-19T02:54:44.924Z,87.70
2022-12-19T02:57:21.517Z,90.10
2022-12-19T03:00:01.160Z,92.00
2022-12-19T03:02:41.494Z,92.00
2022-12-19T03:05:17.557Z,92.10
2022-12-19T03:07:56.037Z,91.90
2022-12-19T03:10:31.324Z,92.20
2022-12-19T03:13:02.933Z,92.50
2022-12-19T03:15:33.111Z,92.30
2022-12-19T03:18:03.527Z,92.30
2022-12-19T03:20:41.458Z,91.30
2022-12-19T03:23:09.572Z,90.10
2022-12-19T03:25:37.802Z,92.00
2022-12-19T03:28:12.973Z,92.60
2022-12-19T03:30:42.992Z,92.50
2022-12-19T03:33:14.998Z,90.60
2022-12-19T03:35:44.898Z,90.80
2022-12-19T03:38:15.080Z,92.10
2022-12-19T03:40:46.228Z,92.40
2022-12-19T03:43:16.581Z,93.00
2022-12-19T03:45:51.003Z,93.50
2022-12-19T03:48:28.539Z,95.60
2022-12-19T03:51:08.652Z,99.90
2022-12-19T03:53:49.209Z,99.90
2022-12-19T03:56:26.538Z,99.90
2022-12-19T03:59:08.695Z,99.90
2022-12-19T04:01:37.675Z,99.90
2022-12-19T04:04:08.704Z,99.90
2022-12-19T04:06:36.967Z,99.90
2022-12-19T04:09:05.382Z,99.90
2022-12-19T04:11:39.757Z,99.90
2022-12-19T04:14:11.698Z,99.90
2022-12-19T04:16:44.200Z,99.90
2022-12-19T04:19:19.281Z,99.90
2022-12-19T04:21:52.412Z,99.90
2022-12-19T04:24:25.320Z,99.90
2022-12-19T04:26:55.439Z,99.90
2022-12-19T04:29:26.160Z,99.90
2022-12-19T04:31:54.666Z,99.90
2022-12-19T04:34:24.111Z,99.90
2022-12-19T04:36:52.628Z,99.90
2022-12-19T04:39:20.786Z,99.90
2022-12-19T04:41:48.768Z,99.90
2022-12-19T04:44:17.006Z,99.90
2022-12-19T04:46:45.118Z,99.90
2022-12-19T04:49:13.278Z,99.90
2022-12-19T04:51:42.769Z,99.90
2022-12-19T04:54:10.810Z,99.90
2022-12-19T04:56:38.974Z,99.90
2022-12-19T04:59:07.184Z,99.90
2022-12-19T05:01:35.540Z,99.90
2022-12-19T05:04:04.787Z,99.90
2022-12-19T05:06:33.229Z,99.60
2022-12-19T05:09:02.707Z,98.90
2022-12-19T05:11:30.881Z,99.60
2022-12-19T05:14:00.128Z,98.50
2022-12-19T05:16:28.274Z,97.80
2022-12-19T05:18:56.555Z,99.60
2022-12-19T05:21:24.795Z,99.90
2022-12-19T05:23:52.973Z,99.90
2022-12-19T05:26:22.450Z,98.80
2022-12-19T05:28:50.530Z,96.70
2022-12-19T05:31:21.012Z,97.70
2022-12-19T05:33:50.149Z,98.00
2022-12-19T05:36:20.163Z,99.20
2022-12-19T05:38:48.561Z,98.10
2022-12-19T05:41:18.725Z,98.40
2022-12-19T05:43:52.020Z,97.50
2022-12-19T05:46:20.467Z,98.60
2022-12-19T05:48:49.020Z,98.50
2022-12-19T05:51:17.426Z,98.00
2022-12-19T05:53:45.622Z,99.20
2022-12-19T05:56:16.302Z,98.60
2022-12-19T05:58:45.774Z,97.80
2022-12-19T06:01:17.727Z,99.80
2022-12-19T06:03:46.189Z,99.80
2022-12-19T06:06:16.447Z,98.10
2022-12-19T06:08:45.084Z,98.90
2022-12-19T06:11:14.488Z,99.20
2022-12-19T06:13:43.128Z,99.80
2022-12-19T06:16:13.998Z,99.90
2022-12-19T06:18:45.633Z,99.90
2022-12-19T06:21:15.958Z,99.90
2022-12-19T06:23:45.289Z,99.90
2022-12-19T06:26:19.584Z,99.80
2022-12-19T06:28:49.009Z,99.90
2022-12-19T06:31:17.972Z,99.90
2022-12-19T06:33:47.687Z,99.90
2022-12-19T06:36:19.850Z,99.90
2022-12-19T06:38:48.133Z,99.90
2022-12-19T06:41:34.043Z,99.90
2022-12-19T06:44:03.184Z,99.90
2022-12-19T06:46:31.731Z,99.90
2022-12-19T06:49:02.361Z,99.90
2022-12-19T06:51:30.920Z,99.90
2022-12-19T06:53:59.126Z,99.90
2022-12-19T06:56:28.130Z,99.90
2022-12-19T06:58:56.417Z,99.90
2022-12-19T07:01:35.372Z,99.90
2022-12-19T07:04:05.453Z,99.90
2022-12-19T07:06:33.840Z,99.90
2022-12-19T07:09:02.095Z,99.90
2022-12-19T07:11:30.255Z,99.90
2022-12-19T07:13:58.403Z,99.90
2022-12-19T07:16:28.031Z,99.90
2022-12-19T07:18:56.477Z,99.40
2022-12-19T07:21:26.223Z,99.90
2022-12-19T07:23:55.312Z,99.90
2022-12-19T07:26:24.027Z,99.90
2022-12-19T07:28:52.242Z,99.90
2022-12-19T07:31:20.434Z,99.90
2022-12-19T07:33:48.639Z,99.90
2022-12-19T07:36:16.875Z,99.90
2022-12-19T07:38:46.359Z,99.90
2022-12-19T07:41:14.699Z,99.90
2022-12-19T07:43:42.928Z,99.90
2022-12-19T07:46:11.139Z,99.90
2022-12-19T07:48:39.480Z,99.90
2022-12-19T07:51:07.881Z,99.90
2022-12-19T07:53:36.062Z,99.90
2022-12-19T07:56:05.757Z,99.90
2022-12-19T07:58:34.391Z,99.90
2022-12-19T08:01:02.997Z,99.90
2022-12-19T08:03:31.019Z,99.90
2022-12-19T08:06:01.342Z,99.90
2022-12-19T08:08:30.436Z,99.90
2022-12-19T08:11:06.439Z,99.90
2022-12-19T08:13:42.022Z,99.90
2022-12-19T08:16:14.754Z,99.90
2022-12-19T08:18:43.045Z,99.90
2022-12-19T08:21:11.786Z,99.90
2022-12-19T08:23:40.077Z,99.90
2022-12-19T08:26:10.138Z,99.90
2022-12-19T08:28:39.779Z,99.90
2022-12-19T08:31:09.866Z,99.90
2022-12-19T08:33:38.050Z,99.90
2022-12-19T08:36:08.257Z,99.90
2022-12-19T08:38:37.105Z,99.90
2022-12-19T08:41:05.567Z,99.90
2022-12-19T08:43:34.091Z,99.90
2022-12-19T08:46:03.705Z,99.90
2022-12-19T08:48:32.835Z,99.90
2022-12-19T08:51:03.026Z,99.90
2022-12-19T08:53:34.043Z,99.90
2022-12-19T08:56:04.503Z,99.90
2022-12-19T08:58:32.670Z,99.90
2022-12-19T09:01:05.382Z,99.90
2022-12-19T09:03:42.734Z,99.90
2022-12-19T09:06:21.308Z,99.90
2022-12-19T09:08:49.968Z,99.90
2022-12-19T09:11:20.268Z,99.90
2022-12-19T09:13:50.424Z,99.90
2022-12-19T09:16:20.461Z,99.90
2022-12-19T09:18:51.877Z,99.90
2022-12-19T09:21:21.148Z,99.90
2022-12-19T09:23:50.061Z,99.90
2022-12-19T09:26:18.504Z,99.90
2022-12-19T09:28:48.325Z,99.90
2022-12-19T09:31:18.873Z,99.90
2022-12-19T09:33:47.339Z,99.90
2022-12-19T09:36:19.855Z,99.90
2022-12-19T09:38:49.316Z,99.90
2022-12-19T09:41:41.608Z,99.90
2022-12-19T09:44:20.539Z,99.90
2022-12-19T09:46:51.698Z,99.90
2022-12-19T09:49:22.742Z,99.90
2022-12-19T09:52:00.569Z,99.90
2022-12-19T09:54:36.266Z,99.90
2022-12-19T09:57:10.765Z,99.90
2022-12-19T09:59:49.568Z,99.90
2022-12-19T10:02:35.629Z,99.90
2022-12-19T10:05:17.086Z,99.90
2022-12-19T10:08:09.723Z,99.90
2022-12-19T10:12:39.581Z,99.90
2022-12-19T10:13:54.609Z,99.90
2022-12-19T10:16:31.925Z,99.90
2022-12-19T10:19:04.084Z,99.90
2022-12-19T10:22:08.101Z,99.90
2022-12-19T10:24:59.599Z,99.90
2022-12-19T10:27:59.404Z,99.90
2022-12-19T10:30:32.756Z,99.90
2022-12-19T10:33:19.758Z,99.90
2022-12-19T10:35:55.530Z,99.90
2022-12-19T10:38:32.319Z,99.90
2022-12-19T10:41:14.889Z,99.90
2022-12-19T10:43:52.268Z,99.90
2022-12-19T10:46:26.306Z,99.90
2022-12-19T10:48:55.014Z,99.90
2022-12-19T10:51:26.043Z,99.90
2022-12-19T10:53:57.197Z,99.90
2022-12-19T10:56:36.795Z,99.90
2022-12-19T10:59:16.233Z,99.90
2022-12-19T11:01:45.211Z,99.90
2022-12-19T11:04:27.805Z,99.90
2022-12-19T11:07:08.377Z,99.90
2022-12-19T11:09:40.072Z,99.90
2022-12-19T11:16:50.053Z,99.90
2022-12-19T11:20:45.725Z,99.90
2022-12-19T11:28:25.991Z,99.90
2022-12-19T11:29:19.366Z,99.90
2022-12-19T11:30:34.399Z,99.90
2022-12-19T11:30:43.543Z,99.90
2022-12-19T11:32:41.466Z,99.90
2022-12-19T11:35:19.858Z,99.90
2022-12-19T11:37:55.675Z,99.90
2022-12-19T11:40:34.805Z,99.90
2022-12-19T11:43:43.178Z,99.90
2022-12-19T11:46:04.551Z,99.90
2022-12-19T11:48:40.382Z,99.90
2022-12-19T11:51:15.512Z,99.90
2022-12-19T11:53:52.103Z,99.90
2022-12-19T11:56:24.437Z,99.90
2022-12-19T11:58:56.789Z,99.90
2022-12-19T12:01:41.585Z,99.90
2022-12-19T12:04:30.690Z,99.90
2022-12-19T12:07:00.323Z,99.90
2022-12-19T12:11:09.576Z,99.90
2022-12-19T12:20:55.147Z,99.90
2022-12-19T12:27:47.379Z,99.90
2022-12-19T12:31:01.689Z,99.90
2022-12-19T12:31:21.672Z,99.90
2022-12-19T12:31:42.402Z,99.90
2022-12-19T12:31:43.411Z,99.90
2022-12-19T12:31:43.764Z,99.90
2022-12-19T12:35:55.107Z,99.90
2022-12-19T12:39:33.351Z,99.90
2022-12-19T12:42:14.605Z,99.90
2022-12-19T12:44:46.117Z,99.90
2022-12-19T12:47:19.250Z,99.90
2022-12-19T12:49:55.784Z,99.90
2022-12-19T12:52:30.052Z,99.90
2022-12-19T12:54:58.954Z,99.90
2022-12-19T12:57:36.975Z,99.90
2022-12-19T13:00:24.014Z,99.90
2022-12-19T13:02:57.060Z,99.90
2022-12-19T13:05:40.586Z,99.90
2022-12-19T13:08:35.771Z,99.90
2022-12-19T13:11:06.731Z,99.90
2022-12-19T13:13:58.093Z,99.90
2022-12-19T13:16:53.068Z,99.90
2022-12-19T13:19:28.388Z,99.90
2022-12-19T13:22:41.954Z,99.90
2022-12-19T13:25:47.353Z,99.90
2022-12-19T13:28:37.160Z,99.90
2022-12-19T13:31:22.835Z,99.90
2022-12-19T13:34:17.215Z,99.90
2022-12-19T13:39:50.024Z,99.90
2022-12-19T13:40:10.897Z,99.90
2022-12-19T13:43:11.375Z,99.90
2022-12-19T13:45:42.826Z,99.90
2022-12-19T13:48:16.602Z,99.90
2022-12-19T13:50:49.613Z,99.90
2022-12-19T13:53:19.542Z,99.90
2022-12-19T13:55:50.005Z,99.90
2022-12-19T13:58:29.152Z,99.90
2022-12-19T14:01:01.181Z,99.90
2022-12-19T14:03:37.264Z,99.90
2022-12-19T14:06:17.345Z,99.90
2022-12-19T14:08:48.174Z,99.90
2022-12-19T14:12:29.055Z,99.90
2022-12-19T14:14:58.082Z,99.90
2022-12-19T14:17:37.847Z,99.90
2022-12-19T14:22:02.259Z,99.90
2022-12-19T14:23:06.897Z,99.90
2022-12-19T14:28:18.569Z,99.90
2022-12-19T14:28:42.309Z,99.90
2022-12-19T14:31:15.931Z,99.90
2022-12-19T14:34:04.798Z,99.90
2022-12-19T14:36:39.041Z,99.90
2022-12-19T14:39:25.133Z,99.90
2022-12-19T14:42:49.281Z,99.90
2022-12-19T14:54:03.375Z,99.90
2022-12-19T14:54:16.796Z,99.90
2022-12-19T14:54:20.820Z,99.90
2022-12-19T14:55:43.171Z,99.90
2022-12-19T14:57:29.040Z,99.90
2022-12-19T15:01:08.471Z,99.90
2022-12-19T15:03:21.664Z,99.90
2022-12-19T15:05:50.592Z,99.90
2022-12-19T15:11:00.808Z,99.90
2022-12-19T15:11:55.566Z,99.90
2022-12-19T15:14:54.530Z,99.90
2022-12-19T15:17:23.973Z,99.90
2022-12-19T15:19:54.095Z,99.90
2022-12-19T15:22:22.305Z,99.90
2022-12-19T15:24:50.609Z,99.90
2022-12-19T15:27:19.214Z,99.90
2022-12-19T15:29:47.384Z,99.90
2022-12-19T15:32:16.698Z,99.90
2022-12-19T15:34:51.135Z,99.90
2022-12-19T15:37:21.276Z,99.90
2022-12-19T15:39:49.471Z,99.90
2022-12-19T15:42:21.483Z,99.90
2022-12-19T15:44:50.247Z,99.90
2022-12-19T15:47:20.886Z,99.90
2022-12-19T15:49:48.990Z,99.90
2022-12-19T15:52:18.967Z,99.90
2022-12-19T15:54:50.590Z,99.90
2022-12-19T15:57:27.870Z,99.90
2022-12-19T15:59:58.192Z,99.90
2022-12-19T16:02:42.598Z,99.90
2022-12-19T16:05:17.464Z,99.90
2022-12-19T16:07:46.059Z,99.90
2022-12-19T16:10:16.584Z,99.90
2022-12-19T16:12:48.187Z,99.90
2022-12-19T16:15:26.579Z,99.90
2022-12-19T16:17:55.303Z,99.90
2022-12-19T16:20:25.524Z,99.90
2022-12-19T16:22:54.946Z,99.90
2022-12-19T16:25:29.381Z,99.90
2022-12-19T16:28:01.853Z,99.90
2022-12-19T16:30:32.416Z,99.90
2022-12-19T16:33:02.237Z,99.90
2022-12-19T16:38:20.588Z,99.90
2022-12-19T16:40:51.577Z,99.90
2022-12-19T16:43:28.539Z,99.90
2022-12-19T16:46:00.783Z,99.90
2022-12-19T16:48:31.042Z,99.90
2022-12-19T16:51:00.319Z,99.90
2022-12-19T16:53:29.375Z,99.90
2022-12-19T16:56:00.657Z,99.90
2022-12-19T16:58:30.171Z,99.90
2022-12-19T17:00:58.601Z,99.90
2022-12-19T17:03:30.609Z,99.90
2022-12-19T17:05:58.884Z,99.90
2022-12-19T17:08:27.087Z,99.90
2022-12-19T17:10:55.976Z,99.90
2022-12-19T17:13:26.056Z,99.90
2022-12-19T17:15:57.143Z,99.90
2022-12-19T17:18:29.736Z,99.90
2022-12-19T17:20:58.715Z,99.90
2022-12-19T17:23:29.076Z,99.90
2022-12-19T17:25:58.263Z,99.90
2022-12-19T17:28:28.425Z,99.90
2022-12-19T17:30:59.846Z,99.90
2022-12-19T17:33:34.585Z,99.90
2022-12-19T17:36:03.625Z,99.90
2022-12-19T17:38:31.845Z,99.90
2022-12-19T17:41:00.323Z,99.90
2022-12-19T17:43:29.813Z,99.90
2022-12-19T17:45:58.465Z,99.90
2022-12-19T17:48:28.644Z,99.90
2022-12-19T17:50:57.149Z,99.90
2022-12-19T17:53:25.394Z,99.90
2022-12-19T17:55:54.089Z,99.90
2022-12-19T17:58:22.690Z,99.90
2022-12-19T18:00:53.118Z,99.90
2022-12-19T18:03:23.667Z,99.90
2022-12-19T18:05:54.011Z,99.90
2022-12-19T18:08:28.363Z,99.90
2022-12-19T18:10:58.687Z,99.90
2022-12-19T18:14:03.845Z,99.90
2022-12-19T18:16:34.484Z,99.90
2022-12-19T18:19:02.659Z,99.90
2022-12-19T18:21:31.011Z,99.90
2022-12-19T18:23:59.153Z,99.90
2022-12-19T18:26:27.257Z,99.90
2022-12-19T18:28:55.515Z,99.90
2022-12-19T18:31:26.480Z,99.90
2022-12-19T18:34:07.103Z,99.90
2022-12-19T18:36:40.101Z,99.90
2022-12-19T18:39:19.456Z,99.90
2022-12-19T18:41:47.682Z,99.90
2022-12-19T18:44:15.720Z,99.90
2022-12-19T18:46:44.186Z,99.90
2022-12-19T18:49:16.796Z,99.90
2022-12-19T18:51:46.046Z,99.90
2022-12-19T18:54:15.254Z,99.90
2022-12-19T18:56:43.340Z,99.90
2022-12-19T18:59:11.424Z,99.90
2022-12-19T19:01:42.870Z,99.90
2022-12-19T19:04:13.301Z,99.90
2022-12-19T19:06:50.357Z,99.90
2022-12-19T19:09:21.034Z,99.90
2022-12-19T19:12:22.072Z,99.90
2022-12-19T19:14:50.167Z,99.90
2022-12-19T19:17:27.226Z,99.90
2022-12-19T19:19:56.237Z,99.90
2022-12-19T19:22:26.136Z,99.90
2022-12-19T19:24:54.333Z,99.90
2022-12-19T19:27:22.592Z,99.90
2022-12-19T19:29:50.714Z,99.90
2022-12-19T19:32:19.943Z,99.90
2022-12-19T19:34:48.325Z,99.90
2022-12-19T19:37:16.915Z,99.90
2022-12-19T19:39:47.745Z,99.90
2022-12-19T19:42:16.150Z,99.90
2022-12-19T19:44:45.502Z,99.90
2022-12-19T19:47:14.061Z,99.90
2022-12-19T19:49:42.389Z,99.90
2022-12-19T19:52:11.228Z,99.90
2022-12-19T19:54:39.457Z,99.90
2022-12-19T19:57:09.801Z,99.90
2022-12-19T19:59:37.887Z,99.90
2022-12-19T20:02:08.408Z,99.90
2022-12-19T20:04:37.553Z,99.90
2022-12-19T20:07:06.318Z,99.90
2022-12-19T20:09:34.661Z,99.90
2022-12-19T20:12:02.941Z,99.90
2022-12-19T20:14:32.525Z,99.90
2022-12-19T20:17:00.626Z,99.90
2022-12-19T20:19:28.798Z,99.90
2022-12-19T20:21:57.520Z,99.90
2022-12-19T20:24:25.593Z,99.90
2022-12-19T20:26:53.746Z,99.90
2022-12-19T20:29:21.926Z,99.90
2022-12-19T20:31:51.820Z,99.90
2022-12-19T20:34:20.928Z,99.90
2022-12-19T20:36:49.354Z,99.90
2022-12-19T20:39:21.933Z,99.90
2022-12-19T20:41:50.797Z,99.90
2022-12-19T20:44:24.158Z,99.90
2022-12-19T20:46:54.558Z,99.90
2022-12-19T20:49:24.966Z,99.90
2022-12-19T20:51:53.224Z,99.90
2022-12-19T20:54:21.601Z,99.90
2022-12-19T20:56:49.861Z,99.90
2022-12-19T20:59:18.231Z,99.90
2022-12-19T21:01:46.726Z,99.90
2022-12-19T21:04:16.829Z,99.90
2022-12-19T21:06:45.260Z,99.90
2022-12-19T21:09:13.400Z,99.90
2022-12-19T21:11:41.466Z,99.90
2022-12-19T21:14:11.509Z,99.90
2022-12-19T21:16:39.712Z,99.90
2022-12-19T21:19:07.853Z,99.90
2022-12-19T21:21:37.517Z,99.90
2022-12-19T21:24:06.007Z,99.90
2022-12-19T21:26:34.234Z,99.90
2022-12-19T21:29:02.483Z,99.90
2022-12-19T21:31:31.767Z,99.90
2022-12-19T21:34:02.486Z,99.90
2022-12-19T21:36:31.499Z,99.90
2022-12-19T21:39:03.396Z,99.90
2022-12-19T21:41:32.252Z,99.90
2022-12-19T21:44:01.095Z,99.90
2022-12-19T21:46:30.931Z,99.90
2022-12-19T21:48:59.157Z,99.90
2022-12-19T21:51:29.384Z,99.90
2022-12-19T21:54:07.332Z,99.90
2022-12-19T21:56:37.445Z,99.90
2022-12-19T21:59:07.515Z,99.90
2022-12-19T22:01:36.165Z,99.90
2022-12-19T22:04:07.236Z,99.90
2022-12-19T22:06:38.370Z,99.90
2022-12-19T22:09:10.688Z,99.90
2022-12-19T22:11:39.111Z,99.90
2022-12-19T22:14:07.936Z,99.90
2022-12-19T22:16:36.980Z,99.90
2022-12-19T22:19:06.329Z,99.90
2022-12-19T22:21:34.923Z,99.90
2022-12-19T22:24:04.721Z,99.90
2022-12-19T22:26:35.586Z,99.90
2022-12-19T22:29:08.235Z,99.90
2022-12-19T22:31:37.347Z,99.90
2022-12-19T22:34:07.553Z,99.90
2022-12-19T22:36:37.371Z,99.90
2022-12-19T22:39:07.593Z,99.90
2022-12-19T22:41:38.068Z,99.90
2022-12-19T22:44:06.852Z,99.90
2022-12-19T22:46:36.704Z,99.90
2022-12-19T22:49:07.047Z,99.90
2022-12-19T22:51:36.153Z,99.90
2022-12-19T22:54:05.600Z,99.90
2022-12-19T22:56:36.160Z,99.90
2022-12-19T22:59:06.680Z,99.90
2022-12-19T23:01:37.170Z,99.90
2022-12-19T23:04:06.667Z,99.90
2022-12-19T23:06:37.857Z,99.90
2022-12-19T23:09:07.036Z,99.90
2022-12-19T23:11:38.519Z,99.90
2022-12-19T23:14:08.358Z,99.90
2022-12-19T23:16:36.643Z,99.90
2022-12-19T23:19:05.763Z,99.90
2022-12-19T23:21:33.949Z,99.90
2022-12-19T23:24:02.405Z,99.90
2022-12-19T23:26:32.766Z,99.90
2022-12-19T23:29:04.683Z,99.90
2022-12-19T23:31:34.720Z,99.90
2022-12-19T23:34:03.181Z,99.90
2022-12-19T23:39:19.689Z,99.90
2022-12-19T23:41:47.690Z,99.90
2022-12-19T23:44:17.583Z,99.90
2022-12-19T23:46:45.791Z,99.90
2022-12-19T23:49:14.426Z,99.90
2022-12-19T23:51:42.606Z,99.90
2022-12-19T23:54:11.286Z,99.90
2022-12-19T23:56:39.612Z,99.90
2022-12-19T23:59:07.621Z,99.90
